Time;durP1;ratioP1;P1;durP2;ratioP2;P2;SDS_P1;SDS_P2;PMS_P1;PMS_P2;Temp;Humidity;BMP_temperature;BMP_pressure;BME280_temperature;BME280_humidity;BME280_pressure;Samples;Min_cycle;Max_cycle;Signal;HPM_P1;HPM_P2
2023/04/11 00:00:34;;;;;;;2.13;1.20;;;;;;;;;;6153745;23;20060;-93
2023/04/11 00:03:01;;;;;;;7.68;1.08;;;;;;;;;;6156348;23;20009;-92
2023/04/11 00:05:30;;;;;;;4.53;1.42;;;;;;;;;;6150664;23;20016;-93
2023/04/11 00:07:56;;;;;;;4.85;1.20;;;;;;;;;;6143623;23;20009;-92
2023/04/11 00:10:22;;;;;;;5.80;1.17;;;;;;;;;;6203245;22;20012;-93
2023/04/11 00:12:48;;;;;;;4.28;1.55;;;;;;;;;;6243167;23;20001;-92
2023/04/11 00:15:15;;;;;;;4.38;1.88;;;;;;;;;;6218600;23;20059;-93
2023/04/11 00:17:50;;;;;;;4.57;1.23;;;;;;;;;;6218685;23;20016;-92
2023/04/11 00:20:17;;;;;;;;;;;;;;;;;;6220230;23;20013;-91
2023/04/11 00:22:43;;;;;;;7.00;1.10;;;;;;;;;;6216998;23;19904;-93
2023/04/11 00:25:10;;;;;;;18.50;1.80;;;;;;;;;;6241712;23;20012;-93
2023/04/11 00:27:36;;;;;;;12.65;1.80;;;;;;;;;;6215659;23;20009;-93
2023/04/11 00:30:04;;;;;;;10.77;2.42;;;;;;;;;;6241927;23;20005;-93
2023/04/11 00:32:30;;;;;;;14.30;1.98;;;;;;;;;;6240499;23;20032;-93
2023/04/11 00:34:57;;;;;;;10.00;2.30;;;;;;;;;;6241037;23;20031;-93
2023/04/11 00:37:24;;;;;;;7.22;1.83;;;;;;;;;;6214876;23;20009;-93
2023/04/11 00:39:51;;;;;;;13.07;2.42;;;;;;;;;;6215710;23;20013;-93
2023/04/11 00:42:17;;;;;;;21.60;3.15;;;;;;;;;;6239891;23;20013;-93
2023/04/11 00:44:47;;;;;;;14.93;1.92;;;;;;;;;;6239483;23;20005;-93
2023/04/11 00:47:14;;;;;;;8.52;1.65;;;;;;;;;;6216888;23;20011;-92
2023/04/11 00:49:40;;;;;;;12.30;2.80;;;;;;;;;;6241040;23;20008;-93
2023/04/11 00:52:07;;;;;;;14.57;2.63;;;;;;;;;;6238326;23;20139;-93
2023/04/11 00:54:34;;;;;;;15.25;2.05;;;;;;;;;;6213611;23;20046;-92
2023/04/11 00:57:01;;;;;;;5.72;1.92;;;;;;;;;;6237911;23;20015;-93
2023/04/11 00:59:28;;;;;;;11.95;1.85;;;;;;;;;;6237731;23;20001;-93
2023/04/11 01:01:55;;;;;;;16.15;2.47;;;;;;;;;;6213630;23;20538;-93
2023/04/11 01:04:34;;;;;;;32.50;2.90;;;;;;;;;;6243696;23;20008;-92
2023/04/11 01:09:49;;;;;;;19.75;3.55;;;;;;;;;;6210465;22;20028;-93
2023/04/11 01:12:21;;;;;;;22.85;3.22;;;;;;;;;;6163142;23;20001;-93
2023/04/11 01:14:56;;;;;;;23.38;3.85;;;;;;;;;;6134915;23;20016;-93
2023/04/11 01:17:24;;;;;;;24.00;2.88;;;;;;;;;;6158582;23;20231;-93
2023/04/11 01:19:50;;;;;;;25.40;3.53;;;;;;;;;;6157387;23;20008;-93
2023/04/11 01:22:21;;;;;;;21.70;2.78;;;;;;;;;;6134167;23;20040;-93
2023/04/11 01:24:48;;;;;;;23.88;3.78;;;;;;;;;;6161058;23;20146;-93
2023/04/11 01:27:14;;;;;;;17.58;3.25;;;;;;;;;;6134841;23;20013;-93
2023/04/11 01:29:41;;;;;;;17.95;2.80;;;;;;;;;;6135511;23;20041;-93
2023/04/11 01:32:07;;;;;;;16.38;2.75;;;;;;;;;;6159335;23;20454;-93
2023/04/11 01:34:36;;;;;;;13.05;2.17;;;;;;;;;;6136190;23;20051;-93
2023/04/11 01:37:03;;;;;;;25.17;3.17;;;;;;;;;;6159579;23;20071;-93
2023/04/11 01:39:29;;;;;;;15.00;2.80;;;;;;;;;;6136281;23;20009;-93
2023/04/11 01:41:56;;;;;;;19.33;3.55;;;;;;;;;;6134425;23;20436;-93
2023/04/11 01:44:27;;;;;;;15.30;2.35;;;;;;;;;;6159359;23;20461;-93
2023/04/11 01:46:53;;;;;;;11.57;2.15;;;;;;;;;;6136056;23;20486;-93
2023/04/11 01:49:20;;;;;;;14.85;1.88;;;;;;;;;;6136736;23;20342;-93
2023/04/11 01:51:47;;;;;;;10.88;2.90;;;;;;;;;;6160178;23;20025;-94
2023/04/11 01:54:16;;;;;;;5.35;1.35;;;;;;;;;;6136732;23;20001;-93
2023/04/11 01:56:48;;;;;;;15.30;1.73;;;;;;;;;;6135299;23;20328;-93
2023/04/11 01:59:21;;;;;;;9.68;2.28;;;;;;;;;;6136606;23;20013;-94
2023/04/11 02:01:48;;;;;;;11.27;1.35;;;;;;;;;;6160602;23;20009;-93
2023/04/11 02:04:14;;;;;;;5.85;0.98;;;;;;;;;;6161360;23;20069;-93
2023/04/11 02:06:40;;;;;;;16.27;1.92;;;;;;;;;;6135931;23;20083;-93
2023/04/11 02:09:06;;;;;;;8.18;1.30;;;;;;;;;;6163464;22;20009;-93
2023/04/11 02:11:39;;;;;;;3.55;0.90;;;;;;;;;;6137093;23;20052;-93
2023/04/11 02:14:08;;;;;;;7.65;0.77;;;;;;;;;;6160393;23;20313;-94
2023/04/11 02:16:36;;;;;;;8.50;1.20;;;;;;;;;;6137697;23;20013;-94
2023/04/11 02:19:02;;;;;;;1.75;0.63;;;;;;;;;;6161468;23;20015;-94
2023/04/11 02:21:29;;;;;;;5.82;1.15;;;;;;;;;;6161141;23;20421;-93
2023/04/11 02:23:56;;;;;;;9.65;1.02;;;;;;;;;;6135012;23;20511;-93
2023/04/11 02:26:22;;;;;;;1.92;0.73;;;;;;;;;;6137817;23;20068;-94
2023/04/11 02:28:48;;;;;;;5.78;1.00;;;;;;;;;;6139785;23;20044;-93
2023/04/11 02:31:15;;;;;;;3.22;0.75;;;;;;;;;;6138877;23;20009;-93
2023/04/11 02:33:41;;;;;;;1.25;0.88;;;;;;;;;;6139422;23;20015;-92
2023/04/11 02:36:07;;;;;;;10.52;1.15;;;;;;;;;;6138241;23;20017;-94
2023/04/11 02:38:36;;;;;;;2.95;0.82;;;;;;;;;;6163210;23;20459;-93
2023/04/11 02:41:15;;;;;;;4.65;0.85;;;;;;;;;;6138846;23;20419;-93
2023/04/11 02:43:44;;;;;;;8.13;1.58;;;;;;;;;;6137955;23;20036;-93
2023/04/11 02:46:10;;;;;;;4.63;1.20;;;;;;;;;;6138005;23;20008;-93
2023/04/11 02:48:36;;;;;;;10.52;1.02;;;;;;;;;;6164119;23;20005;-93
2023/04/11 02:51:17;;;;;;;3.47;0.70;;;;;;;;;;6138919;23;20020;-93
2023/04/11 02:53:44;;;;;;;5.10;0.93;;;;;;;;;;6137758;23;20067;-93
2023/04/11 02:56:10;;;;;;;3.53;1.33;;;;;;;;;;6163313;23;20005;-94
2023/04/11 02:58:40;;;;;;;5.38;0.47;;;;;;;;;;6138821;23;20009;-94
2023/04/11 03:01:10;;;;;;;4.03;0.82;;;;;;;;;;6138699;23;20013;-93
2023/04/11 03:03:36;;;;;;;2.80;1.15;;;;;;;;;;6163143;23;20009;-93
2023/04/11 03:06:02;;;;;;;3.75;0.80;;;;;;;;;;6138844;23;20017;-93
2023/04/11 03:08:28;;;;;;;1.65;0.80;;;;;;;;;;6162745;23;20103;-94
2023/04/11 03:10:54;;;;;;;7.13;1.10;;;;;;;;;;6180054;23;20095;-93
2023/04/11 03:13:20;;;;;;;5.18;1.02;;;;;;;;;;6217928;23;20427;-93
2023/04/11 03:15:46;;;;;;;2.42;1.20;;;;;;;;;;6218936;23;20016;-94
2023/04/11 03:18:13;;;;;;;6.75;1.20;;;;;;;;;;6243622;23;20012;-92
2023/04/11 03:20:42;;;;;;;9.30;0.90;;;;;;;;;;6218387;23;20431;-93
2023/04/11 03:23:08;;;;;;;4.60;1.38;;;;;;;;;;6218296;23;20039;-93
2023/04/11 03:25:36;;;;;;;6.60;1.42;;;;;;;;;;6216738;23;20012;-92
2023/04/11 03:28:03;;;;;;;4.43;1.45;;;;;;;;;;6244632;23;20133;-93
2023/04/11 03:30:29;;;;;;;10.25;1.58;;;;;;;;;;6218938;23;20619;-92
2023/04/11 03:32:59;;;;;;;6.97;1.27;;;;;;;;;;6218087;23;20013;-93
2023/04/11 03:35:27;;;;;;;6.55;1.02;;;;;;;;;;6239817;23;20072;-93
2023/04/11 03:37:53;;;;;;;8.50;1.60;;;;;;;;;;6219122;23;20427;-93
2023/04/11 03:40:19;;;;;;;7.05;0.82;;;;;;;;;;6243882;23;20012;-93
2023/04/11 03:42:45;;;;;;;15.70;2.05;;;;;;;;;;6243774;23;20091;-93
2023/04/11 03:45:12;;;;;;;8.77;2.13;;;;;;;;;;6242257;23;20012;-93
2023/04/11 03:47:39;;;;;;;5.97;1.60;;;;;;;;;;6245343;23;20008;-93
2023/04/11 03:50:06;;;;;;;9.55;1.77;;;;;;;;;;6218886;23;20524;-95
2023/04/11 03:52:33;;;;;;;11.35;1.85;;;;;;;;;;6245386;23;20004;-92
2023/04/11 03:55:07;;;;;;;20.42;2.05;;;;;;;;;;6219737;23;20406;-92
2023/04/11 03:57:33;;;;;;;8.52;2.47;;;;;;;;;;6249688;23;20000;-96
2023/04/11 04:00:00;;;;;;;5.18;1.08;;;;;;;;;;6223281;23;20059;-94
2023/04/11 04:02:26;;;;;;;12.88;1.88;;;;;;;;;;6225546;23;20060;-92
2023/04/11 04:04:57;;;;;;;18.02;1.70;;;;;;;;;;6226582;23;20360;-91
2023/04/11 04:07:24;;;;;;;11.35;2.40;;;;;;;;;;6249518;23;20036;-92
2023/04/11 04:09:53;;;;;;;12.30;1.95;;;;;;;;;;6251433;22;20016;-92
2023/04/11 04:12:23;;;;;;;13.40;2.47;;;;;;;;;;6250053;23;20394;-91
2023/04/11 04:14:49;;;;;;;12.57;2.20;;;;;;;;;;6248558;23;20452;-93
2023/04/11 04:17:15;;;;;;;14.63;2.30;;;;;;;;;;6246043;23;20013;-93
2023/04/11 04:19:43;;;;;;;9.57;2.42;;;;;;;;;;6244510;23;20015;-92
2023/04/11 04:22:10;;;;;;;8.35;1.98;;;;;;;;;;6243197;23;20497;-94
2023/04/11 04:24:41;;;;;;;13.70;2.50;;;;;;;;;;6217400;23;20035;-92
2023/04/11 04:27:10;;;;;;;16.08;2.45;;;;;;;;;;6241988;23;20423;-92
2023/04/11 04:29:51;;;;;;;3.83;2.15;;;;;;;;;;6217258;23;20545;-92
2023/04/11 04:32:21;;;;;;;28.10;3.47;;;;;;;;;;6219863;23;20012;-92
2023/04/11 04:34:49;;;;;;;12.57;3.15;;;;;;;;;;6242746;23;20032;-93
2023/04/11 04:37:22;;;;;;;12.88;2.55;;;;;;;;;;6216669;23;20022;-93
2023/04/11 04:39:52;;;;;;;18.55;3.00;;;;;;;;;;6218177;23;20008;-92
2023/04/11 04:42:20;;;;;;;14.10;2.92;;;;;;;;;;6217340;23;20017;-94
2023/04/11 04:44:46;;;;;;;6.25;1.52;;;;;;;;;;6241071;23;20075;-92
2023/04/11 04:47:13;;;;;;;9.35;2.38;;;;;;;;;;6215642;23;20008;-91
2023/04/11 04:49:40;;;;;;;14.60;2.63;;;;;;;;;;6241424;23;20008;-92
2023/04/11 04:52:06;;;;;;;18.42;3.25;;;;;;;;;;6217055;23;20012;-93
2023/04/11 04:54:32;;;;;;;12.32;3.13;;;;;;;;;;6217169;23;20096;-91
2023/04/11 04:57:00;;;;;;;11.10;2.63;;;;;;;;;;6216777;23;20091;-92
2023/04/11 04:59:26;;;;;;;7.95;2.50;;;;;;;;;;6216917;23;20018;-92
2023/04/11 05:01:56;;;;;;;9.77;2.53;;;;;;;;;;6215612;23;20308;-92
2023/04/11 05:04:22;;;;;;;15.88;2.80;;;;;;;;;;6242286;23;20017;-92
2023/04/11 05:06:48;;;;;;;10.70;2.35;;;;;;;;;;6217491;23;20012;-92
2023/04/11 05:09:15;;;;;;;7.03;1.60;;;;;;;;;;6214220;23;20013;-93
2023/04/11 05:11:41;;;;;;;18.90;2.80;;;;;;;;;;6239856;22;20082;-93
2023/04/11 05:14:07;;;;;;;10.23;2.83;;;;;;;;;;6240842;23;20032;-93
2023/04/11 05:16:38;;;;;;;22.25;3.45;;;;;;;;;;6241837;23;20008;-92
2023/04/11 05:19:04;;;;;;;10.88;2.83;;;;;;;;;;6218256;23;20016;-92
2023/04/11 05:21:30;;;;;;;18.33;3.55;;;;;;;;;;6216339;23;20009;-92
2023/04/11 05:23:57;;;;;;;6.75;2.08;;;;;;;;;;6217498;23;20095;-92
2023/04/11 05:26:23;;;;;;;5.78;2.10;;;;;;;;;;6216710;23;20009;-92
2023/04/11 05:28:49;;;;;;;6.32;1.92;;;;;;;;;;6215332;23;20020;-92
2023/04/11 05:31:15;;;;;;;11.32;1.65;;;;;;;;;;6216009;23;20011;-92
2023/04/11 05:33:42;;;;;;;5.60;1.40;;;;;;;;;;6242391;23;19997;-92
2023/04/11 05:36:17;;;;;;;10.60;2.05;;;;;;;;;;6217727;23;20075;-92
2023/04/11 05:38:51;;;;;;;10.32;1.90;;;;;;;;;;6241105;23;20029;-92
2023/04/11 05:41:17;;;;;;;14.73;2.85;;;;;;;;;;6240916;23;20435;-92
2023/04/11 05:43:43;;;;;;;7.70;2.55;;;;;;;;;;6241570;23;20012;-91
2023/04/11 05:46:11;;;;;;;19.20;3.00;;;;;;;;;;6217201;23;20019;-92
2023/04/11 05:48:38;;;;;;;16.73;4.22;;;;;;;;;;6241709;23;20007;-92
2023/04/11 05:51:04;;;;;;;5.65;1.83;;;;;;;;;;6241693;23;20015;-92
2023/04/11 05:53:33;;;;;;;8.73;3.15;;;;;;;;;;6216548;23;20008;-92
2023/04/11 05:56:00;;;;;;;14.50;2.60;;;;;;;;;;6216650;23;20012;-92
2023/04/11 05:58:26;;;;;;;9.75;1.60;;;;;;;;;;6216019;23;20016;-92
2023/04/11 06:01:01;;;;;;;10.18;3.03;;;;;;;;;;6216072;23;20021;-92
2023/04/11 06:03:28;;;;;;;13.75;2.33;;;;;;;;;;6216421;23;20020;-92
2023/04/11 06:05:54;;;;;;;15.13;2.88;;;;;;;;;;6215964;23;20019;-92
2023/04/11 06:08:20;;;;;;;3.33;0.95;;;;;;;;;;6217494;23;20009;-92
2023/04/11 06:11:01;;;;;;;14.10;3.47;;;;;;;;;;6217632;22;20021;-92
2023/04/11 06:13:30;;;;;;;9.52;2.42;;;;;;;;;;6217358;23;20395;-92
2023/04/11 06:15:56;;;;;;;4.57;1.40;;;;;;;;;;6241809;23;20108;-92
2023/04/11 06:18:23;;;;;;;17.65;4.18;;;;;;;;;;6217409;23;20433;-92
2023/04/11 06:20:50;;;;;;;11.90;2.47;;;;;;;;;;6241618;23;20336;-92
2023/04/11 06:23:16;;;;;;;3.10;2.33;;;;;;;;;;6215870;23;20009;-92
2023/04/11 06:25:57;;;;;;;5.00;1.73;;;;;;;;;;6247968;23;20028;-88
2023/04/11 06:28:32;;;;;;;16.23;2.78;;;;;;;;;;6255832;23;20009;-91
2023/04/11 06:31:02;;;;;;;10.60;2.30;;;;;;;;;;6256551;23;20001;-91
2023/04/11 06:33:28;;;;;;;5.30;1.98;;;;;;;;;;6221858;23;20240;-92
2023/04/11 06:36:05;;;;;;;20.27;2.92;;;;;;;;;;6220431;23;20009;-92
2023/04/11 06:38:33;;;;;;;20.30;2.83;;;;;;;;;;6219889;23;20040;-93
2023/04/11 06:40:59;;;;;;;15.25;2.75;;;;;;;;;;6244146;23;20027;-92
2023/04/11 06:43:25;;;;;;;17.08;3.67;;;;;;;;;;6218276;23;20474;-91
2023/04/11 06:45:52;;;;;;;14.80;1.90;;;;;;;;;;6219569;23;20069;-92
2023/04/11 06:48:20;;;;;;;4.93;1.52;;;;;;;;;;6217778;23;20032;-91
2023/04/11 06:50:50;;;;;;;7.93;1.98;;;;;;;;;;6217757;23;20016;-92
2023/04/11 06:53:16;;;;;;;13.30;2.38;;;;;;;;;;6242886;23;20005;-93
2023/04/11 06:55:47;;;;;;;15.10;2.83;;;;;;;;;;6216417;23;20022;-91
2023/04/11 06:58:13;;;;;;;11.68;2.10;;;;;;;;;;6241074;23;20010;-92
2023/04/11 07:00:45;;;;;;;7.53;1.60;;;;;;;;;;6217630;23;20009;-91
2023/04/11 07:03:23;;;;;;;19.90;4.07;;;;;;;;;;6216512;23;20015;-92
2023/04/11 07:05:50;;;;;;;7.18;2.22;;;;;;;;;;6222285;23;20444;-92
2023/04/11 07:08:17;;;;;;;17.38;2.83;;;;;;;;;;6216004;23;20043;-92
2023/04/11 07:10:49;;;;;;;12.82;2.25;;;;;;;;;;6216829;22;20029;-91
2023/04/11 07:13:20;;;;;;;11.55;2.83;;;;;;;;;;6229598;23;20011;-92
2023/04/11 07:15:49;;;;;;;14.02;2.95;;;;;;;;;;6232464;23;20500;-90
2023/04/11 07:18:28;;;;;;;18.45;2.85;;;;;;;;;;6254445;23;20032;-91
2023/04/11 07:20:55;;;;;;;8.70;2.70;;;;;;;;;;6248797;23;20071;-91
2023/04/11 07:23:21;;;;;;;9.27;1.77;;;;;;;;;;6207887;23;20013;-91
2023/04/11 07:25:53;;;;;;;16.38;3.53;;;;;;;;;;6194356;23;20388;-91
2023/04/11 07:28:22;;;;;;;9.02;1.73;;;;;;;;;;6169079;23;20005;-91
2023/04/11 07:30:52;;;;;;;6.18;2.10;;;;;;;;;;6168884;23;20410;-92
2023/04/11 07:33:24;;;;;;;9.45;2.30;;;;;;;;;;6193277;23;20024;-92
2023/04/11 07:35:51;;;;;;;10.13;3.25;;;;;;;;;;6190798;23;20023;-91
2023/04/11 07:38:26;;;;;;;8.27;2.08;;;;;;;;;;6168850;23;20147;-92
2023/04/11 07:41:02;;;;;;;7.15;2.10;;;;;;;;;;6169717;23;20051;-91
2023/04/11 07:43:28;;;;;;;;;;;;;;;;;;6172298;23;20079;-92
2023/04/11 07:45:55;;;;;;;11.73;2.67;;;;;;;;;;6194812;23;19915;-91
2023/04/11 07:48:23;;;;;;;14.18;2.30;;;;;;;;;;6173088;23;20009;-91
2023/04/11 07:50:49;;;;;;;5.05;1.77;;;;;;;;;;6196186;23;20074;-91
2023/04/11 07:53:15;;;;;;;23.15;2.92;;;;;;;;;;6169547;23;20009;-92
2023/04/11 07:55:41;;;;;;;11.57;2.30;;;;;;;;;;6221653;23;20015;-93
2023/04/11 07:58:08;;;;;;;11.52;2.38;;;;;;;;;;6248485;23;20019;-93
2023/04/11 08:00:34;;;;;;;6.70;1.70;;;;;;;;;;6247587;23;20015;-92
2023/04/11 08:03:04;;;;;;;16.92;3.78;;;;;;;;;;6220447;23;20566;-91
2023/04/11 08:05:31;;;;;;;25.60;3.00;;;;;;;;;;6223583;23;20102;-92
2023/04/11 08:07:57;;;;;;;11.23;2.65;;;;;;;;;;6247421;23;20023;-90
2023/04/11 08:10:26;;;;;;;18.98;4.28;;;;;;;;;;6223367;22;20012;-92
2023/04/11 08:12:59;;;;;;;15.02;2.80;;;;;;;;;;6176717;23;20009;-92
2023/04/11 08:15:25;;;;;;;11.10;2.42;;;;;;;;;;6171411;23;20013;-93
2023/04/11 08:17:55;;;;;;;8.05;1.52;;;;;;;;;;6173862;23;20012;-92
2023/04/11 08:20:21;;;;;;;6.32;1.88;;;;;;;;;;6147184;23;20037;-92
2023/04/11 08:22:47;;;;;;;7.75;2.05;;;;;;;;;;6171459;23;20011;-92
2023/04/11 08:25:36;;;;;;;5.80;2.03;;;;;;;;;;6142114;23;20778;-91
2023/04/11 08:28:01;;;;;;;13.45;2.20;;;;;;;;;;6192952;23;20050;-91
2023/04/11 08:30:27;;;;;;;13.65;2.67;;;;;;;;;;6167749;23;19997;-91
2023/04/11 08:32:54;;;;;;;12.20;2.83;;;;;;;;;;6144974;23;20005;-92
2023/04/11 08:38:14;;;;;;;15.63;1.90;;;;;;;;;;6110021;23;20072;-91
2023/04/11 08:40:40;;;;;;;17.90;2.83;;;;;;;;;;6161763;23;20009;-91
2023/04/11 08:43:15;;;;;;;12.02;2.45;;;;;;;;;;6168681;23;20013;-91
2023/04/11 08:45:41;;;;;;;4.00;1.52;;;;;;;;;;6149869;23;20009;-91
2023/04/11 08:48:11;;;;;;;11.52;2.67;;;;;;;;;;6167735;23;20005;-91
2023/04/11 08:50:46;;;;;;;11.25;2.15;;;;;;;;;;6162796;23;20028;-92
2023/04/11 08:53:25;;;;;;;8.10;2.38;;;;;;;;;;6144718;23;20064;-91
2023/04/11 08:55:51;;;;;;;6.95;2.53;;;;;;;;;;6168023;23;20009;-91
2023/04/11 08:58:38;;;;;;;11.23;2.75;;;;;;;;;;6174323;23;20009;-92
2023/04/11 09:01:50;;;;;;;2.78;1.40;;;;;;;;;;6172379;23;20347;-91
2023/04/11 09:04:16;;;;;;;12.23;2.08;;;;;;;;;;6099115;23;20011;-91
2023/04/11 09:06:58;;;;;;;1.20;0.63;;;;;;;;;;6079975;23;20479;-91
2023/04/11 09:12:19;;;;;;;6.50;1.88;;;;;;;;;;6194848;23;20012;-92
2023/04/11 09:15:03;;;;;;;11.63;1.48;;;;;;;;;;6225581;23;20009;-91
2023/04/11 09:17:41;;;;;;;7.80;2.10;;;;;;;;;;6180153;23;20013;-91
2023/04/11 09:20:20;;;;;;;4.68;1.75;;;;;;;;;;6228196;23;20004;-91
2023/04/11 09:22:49;;;;;;;11.57;3.03;;;;;;;;;;6180416;23;20091;-92
2023/04/11 09:25:22;;;;;;;10.82;1.55;;;;;;;;;;6216288;23;20004;-91
2023/04/11 09:27:49;;;;;;;10.27;0.93;;;;;;;;;;6216696;23;20000;-92
2023/04/11 09:30:23;;;;;;;4.13;1.08;;;;;;;;;;6217450;23;20008;-92
2023/04/11 09:32:51;;;;;;;4.20;1.40;;;;;;;;;;6224393;23;20008;-92
2023/04/11 09:35:37;;;;;;;9.88;1.10;;;;;;;;;;6217817;23;20005;-92
2023/04/11 09:38:08;;;;;;;9.10;1.92;;;;;;;;;;6168646;23;20008;-93
2023/04/11 09:40:41;;;;;;;14.82;2.13;;;;;;;;;;6169317;23;20043;-92
2023/04/11 09:43:16;;;;;;;2.85;1.65;;;;;;;;;;6217381;23;20320;-92
2023/04/11 09:45:43;;;;;;;14.38;2.38;;;;;;;;;;6227525;23;20012;-92
2023/04/11 09:48:23;;;;;;;7.60;2.13;;;;;;;;;;6173746;23;20035;-92
2023/04/11 09:50:50;;;;;;;4.13;1.20;;;;;;;;;;6202883;23;20005;-92
2023/04/11 09:53:19;;;;;;;5.90;1.73;;;;;;;;;;6228489;23;20000;-92
2023/04/11 09:58:57;;;;;;;;;;;;;;;;;;;;;
2023/04/11 10:01:27;;;;;;;13.30;2.13;;;;;;;;;;6225056;23;20027;-92
2023/04/11 10:03:53;;;;;;;10.45;2.47;;;;;;;;;;6223943;23;20036;-92
2023/04/11 10:06:30;;;;;;;19.52;2.95;;;;;;;;;;6180522;23;20009;-93
2023/04/11 10:09:08;;;;;;;5.88;0.98;;;;;;;;;;6218248;23;20005;-92
2023/04/11 10:11:35;;;;;;;9.77;1.80;;;;;;;;;;6232802;22;20024;-93
2023/04/11 10:14:02;;;;;;;4.57;1.40;;;;;;;;;;6218123;23;20426;-94
2023/04/11 10:16:32;;;;;;;9.43;1.58;;;;;;;;;;6220758;23;20097;-92
2023/04/11 10:18:59;;;;;;;2.35;0.90;;;;;;;;;;6220432;23;20005;-93
2023/04/11 10:21:31;;;;;;;6.32;2.17;;;;;;;;;;6247941;23;20012;-92
2023/04/11 10:24:10;;;;;;;5.28;1.67;;;;;;;;;;6233617;23;20000;-92
2023/04/11 10:27:30;;;;;;;4.20;1.23;;;;;;;;;;6262313;23;20011;-92
2023/04/11 10:30:15;;;;;;;4.80;2.05;;;;;;;;;;6120379;23;20006;-91
2023/04/11 10:33:00;;;;;;;10.77;1.90;;;;;;;;;;6119309;23;20025;-91
2023/04/11 10:35:28;;;;;;;7.88;1.25;;;;;;;;;;6112470;23;20024;-92
2023/04/11 10:37:57;;;;;;;5.07;1.08;;;;;;;;;;6082050;23;20014;-91
2023/04/11 10:40:32;;;;;;;5.90;1.42;;;;;;;;;;6136955;23;20014;-92
2023/04/11 10:43:18;;;;;;;2.60;0.90;;;;;;;;;;6106275;23;20010;-93
2023/04/11 10:45:44;;;;;;;4.55;0.73;;;;;;;;;;6151450;23;20084;-92
2023/04/11 10:48:14;;;;;;;6.30;0.90;;;;;;;;;;6219095;23;20005;-91
2023/04/11 10:50:58;;;;;;;10.30;1.15;;;;;;;;;;6225956;23;20001;-92
2023/04/11 10:53:35;;;;;;;6.63;1.58;;;;;;;;;;6219690;23;20069;-91
2023/04/11 10:56:49;;;;;;;4.60;1.20;;;;;;;;;;6250229;23;20035;-90
2023/04/11 10:59:30;;;;;;;2.53;0.45;;;;;;;;;;6237854;23;20319;-92
2023/04/11 11:02:06;;;;;;;7.13;1.33;;;;;;;;;;6253605;23;20571;-91
2023/04/11 11:07:58;;;;;;;9.23;1.52;;;;;;;;;;6166818;23;20016;-92
2023/04/11 11:11:11;;;;;;;;;;;;;;;;;;;;;
2023/04/11 11:14:03;;;;;;;2.28;1.33;;;;;;;;;;6205162;23;20079;-92
2023/04/11 11:16:41;;;;;;;5.88;1.75;;;;;;;;;;6174838;23;20005;-92
2023/04/11 11:28:50;;;;;;;8.05;2.03;;;;;;;;;;6053769;23;20023;-92
2023/04/11 11:31:55;;;;;;;1.45;0.93;;;;;;;;;;6065670;23;20002;-92
2023/04/11 11:37:45;;;;;;;4.35;1.17;;;;;;;;;;6057099;23;20015;-92
2023/04/11 11:40:12;;;;;;;5.97;1.73;;;;;;;;;;6001603;23;20015;-93
2023/04/11 11:42:41;;;;;;;20.65;2.53;;;;;;;;;;6070677;23;20019;-91
2023/04/11 11:48:49;;;;;;;12.32;2.05;;;;;;;;;;6057736;23;20007;-92
2023/04/11 11:51:38;;;;;;;7.63;1.35;;;;;;;;;;6026109;23;20497;-92
2023/04/11 12:02:22;;;;;;;;;;;;;;;;;;;;;
2023/04/11 12:07:12;;;;;;;5.88;1.63;;;;;;;;;;5974706;24;20100;-92
2023/04/11 12:09:38;;;;;;;9.45;1.55;;;;;;;;;;6069184;23;20048;-92
2023/04/11 12:12:08;;;;;;;3.58;1.00;;;;;;;;;;6201599;22;20047;-92
2023/04/11 12:14:35;;;;;;;3.78;0.85;;;;;;;;;;6254907;23;20096;-95
2023/04/11 12:17:07;;;;;;;8.70;1.25;;;;;;;;;;6232727;23;20028;-92
2023/04/11 12:19:45;;;;;;;5.38;1.38;;;;;;;;;;6259816;23;20019;-94
2023/04/11 12:23:02;;;;;;;13.15;2.65;;;;;;;;;;6260542;23;20031;-91
2023/04/11 12:28:57;;;;;;;;;;;;;;;;;;;;;
2023/04/11 12:31:24;;;;;;;12.35;2.45;;;;;;;;;;6221892;23;20035;-91
2023/04/11 12:33:51;;;;;;;8.10;2.30;;;;;;;;;;6219266;23;20024;-91
2023/04/11 12:36:38;;;;;;;16.35;3.05;;;;;;;;;;6221032;23;20028;-93
2023/04/11 12:39:04;;;;;;;4.78;1.27;;;;;;;;;;6204775;23;20004;-92
2023/04/11 12:41:40;;;;;;;7.30;2.30;;;;;;;;;;6220740;23;20016;-90
2023/04/11 12:44:16;;;;;;;8.20;1.05;;;;;;;;;;6243642;23;20008;-91
2023/04/11 12:52:30;;;;;;;7.78;1.70;;;;;;;;;;6225678;23;20019;-91
2023/04/11 12:54:57;;;;;;;4.38;1.33;;;;;;;;;;6245810;23;20027;-92
2023/04/11 12:57:23;;;;;;;7.68;1.73;;;;;;;;;;6221261;23;20015;-92
2023/04/11 12:59:53;;;;;;;5.82;1.70;;;;;;;;;;6221267;23;20012;-90
2023/04/11 13:02:23;;;;;;;7.70;0.93;;;;;;;;;;6248571;23;20019;-92
2023/04/11 13:04:56;;;;;;;6.15;1.63;;;;;;;;;;6226337;23;20000;-91
2023/04/11 13:07:46;;;;;;;8.48;1.33;;;;;;;;;;6223156;23;20110;-90
2023/04/11 13:10:16;;;;;;;10.18;1.63;;;;;;;;;;6202813;23;20005;-91
2023/04/11 13:12:47;;;;;;;9.68;1.88;;;;;;;;;;6220373;22;20028;-92
2023/04/11 13:15:15;;;;;;;6.78;1.88;;;;;;;;;;6243696;23;20005;-91
2023/04/11 13:17:41;;;;;;;7.55;1.90;;;;;;;;;;6221914;23;20013;-91
2023/04/11 13:20:11;;;;;;;14.50;3.28;;;;;;;;;;6245426;23;20059;-91
2023/04/11 13:22:38;;;;;;;14.90;2.13;;;;;;;;;;6221308;23;20346;-92
2023/04/11 13:25:04;;;;;;;9.93;3.15;;;;;;;;;;6219495;23;20043;-92
2023/04/11 13:27:30;;;;;;;4.60;1.70;;;;;;;;;;6221721;23;20004;-92
2023/04/11 13:29:57;;;;;;;16.27;2.97;;;;;;;;;;6220593;23;20086;-92
2023/04/11 13:32:26;;;;;;;11.57;2.20;;;;;;;;;;6218378;23;20009;-93
2023/04/11 13:34:52;;;;;;;11.75;2.10;;;;;;;;;;6221808;23;20031;-93
2023/04/11 13:37:21;;;;;;;11.00;2.63;;;;;;;;;;6244132;23;20008;-92
2023/04/11 13:39:50;;;;;;;11.82;2.60;;;;;;;;;;6220662;23;20371;-93
2023/04/11 13:42:16;;;;;;;8.80;1.42;;;;;;;;;;6245056;23;20443;-93
2023/04/11 13:44:43;;;;;;;19.48;2.72;;;;;;;;;;6218302;23;20046;-92
2023/04/11 13:47:12;;;;;;;6.65;1.67;;;;;;;;;;6245250;23;20008;-93
2023/04/11 13:49:41;;;;;;;14.43;2.20;;;;;;;;;;6244394;23;20090;-93
2023/04/11 13:52:08;;;;;;;14.25;2.33;;;;;;;;;;6195550;23;20008;-92
2023/04/11 13:54:34;;;;;;;25.73;3.38;;;;;;;;;;6219981;23;20005;-91
2023/04/11 13:57:06;;;;;;;10.75;1.75;;;;;;;;;;6218651;23;20072;-92
2023/04/11 13:59:35;;;;;;;17.25;2.63;;;;;;;;;;6219897;23;20454;-93
2023/04/11 14:02:01;;;;;;;15.77;2.35;;;;;;;;;;6220260;23;20442;-91
2023/04/11 14:04:37;;;;;;;17.15;2.42;;;;;;;;;;6220226;23;20088;-93
2023/04/11 14:07:03;;;;;;;8.65;2.53;;;;;;;;;;6220468;23;20023;-92
2023/04/11 14:09:29;;;;;;;9.85;1.95;;;;;;;;;;6221282;23;20009;-92
2023/04/11 14:11:55;;;;;;;16.33;2.53;;;;;;;;;;6222123;22;20012;-92
2023/04/11 14:14:25;;;;;;;15.20;2.55;;;;;;;;;;6221234;23;20024;-91
2023/04/11 14:16:54;;;;;;;16.35;3.05;;;;;;;;;;6250097;23;20021;-92
2023/04/11 14:19:23;;;;;;;11.70;2.50;;;;;;;;;;6232049;23;20008;-91
2023/04/11 14:21:56;;;;;;;14.40;2.05;;;;;;;;;;6227585;23;20065;-94
2023/04/11 14:24:26;;;;;;;11.05;1.98;;;;;;;;;;6230739;23;20021;-92
2023/04/11 14:26:52;;;;;;;12.98;1.80;;;;;;;;;;6252655;23;20012;-94
2023/04/11 14:32:38;;;;;;;10.18;2.58;;;;;;;;;;6121481;23;20114;-93
2023/04/11 14:35:08;;;;;;;12.85;2.70;;;;;;;;;;6136985;23;20035;-93
2023/04/11 14:37:35;;;;;;;16.17;2.60;;;;;;;;;;6250002;23;20438;-93
2023/04/11 14:40:09;;;;;;;18.40;2.50;;;;;;;;;;6226945;23;20038;-92
2023/04/11 14:42:40;;;;;;;16.77;2.15;;;;;;;;;;6224841;23;20478;-92
2023/04/11 14:45:09;;;;;;;11.00;1.98;;;;;;;;;;6224873;23;20024;-92
2023/04/11 14:47:36;;;;;;;16.98;2.70;;;;;;;;;;6224734;23;20028;-92
2023/04/11 14:50:02;;;;;;;6.35;2.17;;;;;;;;;;6222978;23;20039;-93
2023/04/11 14:52:35;;;;;;;15.40;2.28;;;;;;;;;;6222615;23;20009;-92
2023/04/11 14:55:01;;;;;;;10.23;2.63;;;;;;;;;;6247345;23;20371;-93
2023/04/11 14:57:46;;;;;;;14.15;1.42;;;;;;;;;;6249541;23;20001;-93
2023/04/11 15:00:18;;;;;;;15.57;2.33;;;;;;;;;;6249101;23;20028;-93
2023/04/11 15:02:55;;;;;;;4.10;1.20;;;;;;;;;;6224325;23;20009;-93
2023/04/11 15:05:21;;;;;;;10.48;1.85;;;;;;;;;;6246931;23;20009;-93
2023/04/11 15:07:48;;;;;;;5.82;1.58;;;;;;;;;;6246571;23;20005;-93
2023/04/11 15:10:19;;;;;;;12.75;2.10;;;;;;;;;;6246588;23;20001;-94
2023/04/11 15:12:46;;;;;;;21.42;2.20;;;;;;;;;;6246773;22;20044;-94
2023/04/11 15:15:17;;;;;;;12.48;1.83;;;;;;;;;;6221986;23;20008;-94
2023/04/11 15:17:48;;;;;;;14.07;1.60;;;;;;;;;;6222006;23;20017;-93
2023/04/11 15:20:19;;;;;;;13.57;3.53;;;;;;;;;;6245635;23;20008;-93
2023/04/11 15:22:46;;;;;;;12.77;2.22;;;;;;;;;;6250052;23;20011;-94
2023/04/11 15:25:13;;;;;;;13.38;2.03;;;;;;;;;;6223130;23;20023;-93
2023/04/11 15:27:41;;;;;;;11.27;2.10;;;;;;;;;;6246229;23;20470;-94
2023/04/11 15:30:16;;;;;;;15.93;1.95;;;;;;;;;;6221113;23;20011;-94
2023/04/11 15:32:46;;;;;;;14.80;2.08;;;;;;;;;;6250143;23;20008;-94
2023/04/11 15:35:12;;;;;;;15.10;1.98;;;;;;;;;;6221910;23;20356;-93
2023/04/11 15:37:38;;;;;;;6.75;1.50;;;;;;;;;;6247791;23;20015;-94
2023/04/11 15:40:17;;;;;;;7.53;1.75;;;;;;;;;;6247244;23;20031;-93
2023/04/11 15:42:44;;;;;;;11.07;2.30;;;;;;;;;;6246050;23;20360;-93
2023/04/11 15:45:14;;;;;;;11.55;2.10;;;;;;;;;;6221429;23;20011;-93
2023/04/11 15:47:40;;;;;;;10.73;1.80;;;;;;;;;;6198358;23;20011;-93
2023/04/11 15:50:10;;;;;;;7.53;1.55;;;;;;;;;;6224285;23;20004;-93
2023/04/11 15:52:37;;;;;;;13.93;1.63;;;;;;;;;;6252134;23;20011;-94